createdAt,value
2023-05-09T00:01:14.332Z,101346.00
2023-05-09T00:03:45.066Z,101355.75
2023-05-09T00:06:15.712Z,101346.31
2023-05-09T00:08:46.206Z,101347.13
2023-05-09T00:11:16.720Z,101353.31
2023-05-09T00:13:49.412Z,101351.19
2023-05-09T00:16:24.449Z,101343.91
2023-05-09T00:18:54.760Z,101340.34
2023-05-09T00:21:25.119Z,101341.41
2023-05-09T00:23:55.322Z,101350.88
2023-05-09T00:26:26.586Z,101322.28
2023-05-09T00:28:59.411Z,101332.53
2023-05-09T00:31:29.663Z,101336.03
2023-05-09T00:33:59.979Z,101340.88
2023-05-09T00:36:30.224Z,101337.91
2023-05-09T00:39:02.820Z,101340.06
2023-05-09T00:41:33.018Z,101334.41
2023-05-09T00:44:06.203Z,101338.16
2023-05-09T00:46:36.907Z,101335.19
2023-05-09T00:49:08.409Z,101333.03
2023-05-09T00:51:42.449Z,101338.94
2023-05-09T00:54:13.119Z,101309.53
2023-05-09T00:56:43.366Z,101342.16
2023-05-09T00:59:17.536Z,101335.38
2023-05-09T01:01:47.948Z,101346.16
2023-05-09T01:04:18.658Z,101343.47
2023-05-09T01:06:57.645Z,101345.38
2023-05-09T01:09:37.337Z,101346.69
2023-05-09T01:12:17.177Z,101350.75
2023-05-09T01:14:58.619Z,101339.41
2023-05-09T01:17:38.237Z,101332.13
2023-05-09T01:20:17.916Z,101334.56
2023-05-09T01:22:52.866Z,101332.94
2023-05-09T01:25:53.516Z,101335.06
2023-05-09T01:28:38.958Z,101346.94
2023-05-09T01:31:12.936Z,101339.66
2023-05-09T01:33:48.980Z,101336.72
2023-05-09T01:36:22.654Z,101323.25
2023-05-09T01:38:55.008Z,101329.66
2023-05-09T01:41:27.720Z,101332.09
2023-05-09T01:43:59.885Z,101329.63
2023-05-09T01:46:33.453Z,101332.31
2023-05-09T01:49:05.740Z,101329.03
2023-05-09T01:51:37.998Z,101332.81
2023-05-09T01:54:09.937Z,101332.28
2023-05-09T01:56:41.311Z,101328.75
2023-05-09T01:59:16.828Z,101339.50
2023-05-09T02:01:51.149Z,101346.47
2023-05-09T02:04:22.224Z,101331.69
2023-05-09T02:06:53.529Z,101346.44
2023-05-09T02:09:23.429Z,101346.69
2023-05-09T02:11:53.825Z,101342.88
2023-05-09T02:14:27.200Z,101343.41
2023-05-09T02:17:00.336Z,101345.53
2023-05-09T02:19:30.561Z,101342.81
2023-05-09T02:22:00.849Z,101340.91
2023-05-09T02:24:31.121Z,101344.09
2023-05-09T02:27:04.213Z,101332.72
2023-05-09T02:29:40.834Z,101337.81
2023-05-09T02:32:20.508Z,101336.72
2023-05-09T02:34:54.032Z,101303.75
2023-05-09T02:37:24.953Z,101328.56
2023-05-09T02:39:55.250Z,101329.38
2023-05-09T02:42:33.064Z,101313.97
2023-05-09T02:45:03.980Z,101332.00
2023-05-09T02:47:36.814Z,101332.00
2023-05-09T02:50:07.848Z,101323.94
2023-05-09T02:52:39.762Z,101329.31
2023-05-09T02:55:14.420Z,101323.13
2023-05-09T02:57:46.093Z,101330.91
2023-05-09T03:00:18.590Z,101334.97
2023-05-09T03:02:52.288Z,101334.16
2023-05-09T03:05:23.312Z,101320.91
2023-05-09T03:07:55.955Z,101331.13
2023-05-09T03:10:26.207Z,101347.84
2023-05-09T03:12:56.426Z,101324.06
2023-05-09T03:15:26.654Z,101352.63
2023-05-09T03:18:00.237Z,101355.56
2023-05-09T03:20:32.785Z,101354.59
2023-05-09T03:23:02.945Z,101349.94
2023-05-09T03:25:33.183Z,101358.28
2023-05-09T03:28:03.412Z,101364.09
2023-05-09T03:30:33.734Z,101358.16
2023-05-09T03:33:09.014Z,101360.59
2023-05-09T03:35:39.342Z,101358.66
2023-05-09T03:38:10.216Z,101352.34
2023-05-09T03:40:41.384Z,101365.03
2023-05-09T03:43:13.587Z,101361.22
2023-05-09T03:45:44.327Z,101366.66
2023-05-09T03:48:18.443Z,101358.09
2023-05-09T03:50:53.428Z,101380.38
2023-05-09T03:53:24.632Z,101379.03
2023-05-09T03:55:56.383Z,101372.03
2023-05-09T03:58:29.942Z,101380.38
2023-05-09T04:01:01.489Z,101371.47
2023-05-09T04:03:34.868Z,101362.25
2023-05-09T04:06:05.850Z,101392.63
2023-05-09T04:08:43.055Z,101390.28
2023-05-09T04:11:13.436Z,101383.50
2023-05-09T04:13:46.998Z,101389.09
2023-05-09T04:16:33.383Z,101389.69
2023-05-09T04:19:07.471Z,101388.00
2023-05-09T04:21:38.919Z,101384.72
2023-05-09T04:24:16.088Z,101398.19
2023-05-09T04:26:48.920Z,101395.44
2023-05-09T04:29:26.913Z,101401.84
2023-05-09T04:31:59.568Z,101371.88
2023-05-09T04:34:33.677Z,101365.25
2023-05-09T04:37:11.364Z,101398.81
2023-05-09T04:39:41.739Z,101396.38
2023-05-09T04:42:21.310Z,101403.56
2023-05-09T04:44:54.456Z,101400.50
2023-05-09T04:47:26.636Z,101401.84
2023-05-09T04:49:59.194Z,101400.03
2023-05-09T04:52:29.965Z,101399.97
2023-05-09T04:55:00.146Z,101362.50
2023-05-09T04:57:37.059Z,101394.31
2023-05-09T05:00:11.650Z,101390.06
2023-05-09T05:02:42.634Z,101386.34
2023-05-09T05:05:17.994Z,101388.78
2023-05-09T05:07:54.691Z,101388.28
2023-05-09T05:10:28.807Z,101360.25
2023-05-09T05:13:06.809Z,101386.13
2023-05-09T05:15:38.850Z,101394.69
2023-05-09T05:18:10.371Z,101394.97
2023-05-09T05:20:45.113Z,101398.53
2023-05-09T05:23:15.454Z,101392.25
2023-05-09T05:25:45.843Z,101398.22
2023-05-09T05:28:17.221Z,101398.75
2023-05-09T05:30:47.778Z,101398.44
2023-05-09T05:33:17.966Z,101395.19
2023-05-09T05:35:51.672Z,101398.16
2023-05-09T05:38:21.855Z,101400.38
2023-05-09T05:40:55.597Z,101382.22
2023-05-09T05:43:27.285Z,101406.88
2023-05-09T05:45:58.267Z,101405.94
2023-05-09T05:48:29.780Z,101405.13
2023-05-09T05:51:04.413Z,101401.63
2023-05-09T05:53:35.691Z,101403.91
2023-05-09T05:56:06.095Z,101364.84
2023-05-09T05:58:36.936Z,101394.06
2023-05-09T06:01:09.814Z,101395.22
2023-05-09T06:03:41.316Z,101400.69
2023-05-09T06:06:15.182Z,101399.38
2023-05-09T06:08:46.399Z,101400.06
2023-05-09T06:11:17.662Z,101408.72
2023-05-09T06:13:48.166Z,101369.19
2023-05-09T06:16:20.134Z,101389.31
2023-05-09T06:18:56.013Z,101385.31
2023-05-09T06:21:29.410Z,101391.63
2023-05-09T06:24:09.832Z,101402.69
2023-05-09T06:26:44.685Z,101387.53
2023-05-09T06:29:15.832Z,101385.06
2023-05-09T06:31:48.452Z,101383.69
2023-05-09T06:34:19.901Z,101382.56
2023-05-09T06:36:53.822Z,101384.22
2023-05-09T06:39:24.056Z,101391.22
2023-05-09T06:41:54.280Z,101397.72
2023-05-09T06:44:34.144Z,101394.50
2023-05-09T06:47:04.770Z,101401.00
2023-05-09T06:49:34.889Z,101389.13
2023-05-09T06:52:08.030Z,101386.19
2023-05-09T06:54:39.305Z,101382.16
2023-05-09T06:57:09.503Z,101390.25
2023-05-09T06:59:39.717Z,101367.38
2023-05-09T07:02:10.307Z,101378.38
2023-05-09T07:04:40.733Z,101376.75
2023-05-09T07:07:13.611Z,101375.16
2023-05-09T07:09:45.132Z,101378.91
2023-05-09T07:12:15.349Z,101384.53
2023-05-09T07:14:45.652Z,101386.38
2023-05-09T07:17:23.649Z,101382.84
2023-05-09T07:19:54.366Z,101380.38
2023-05-09T07:22:28.240Z,101382.78
2023-05-09T07:25:01.145Z,101373.03
2023-05-09T07:27:31.413Z,101380.34
2023-05-09T07:30:01.614Z,101381.88
2023-05-09T07:32:31.852Z,101374.28
2023-05-09T07:35:02.181Z,101352.19
2023-05-09T07:37:35.487Z,101368.56
2023-05-09T07:40:06.499Z,101373.03
2023-05-09T07:42:37.346Z,101347.69
2023-05-09T07:45:08.959Z,101366.53
2023-05-09T07:47:39.434Z,101366.22
2023-05-09T07:50:13.249Z,101365.34
2023-05-09T07:52:47.532Z,101363.47
2023-05-09T07:55:18.018Z,101362.50
2023-05-09T07:57:48.466Z,101362.13
2023-05-09T08:00:24.315Z,101370.41
2023-05-09T08:02:56.889Z,101364.91
2023-05-09T08:05:27.332Z,101360.53
2023-05-09T08:08:00.181Z,101362.13
2023-05-09T08:10:30.916Z,101346.59
2023-05-09T08:13:01.249Z,101347.75
2023-05-09T08:15:33.724Z,101332.91
2023-05-09T08:18:03.909Z,101345.44
2023-05-09T08:20:34.881Z,101343.50
2023-05-09T08:23:07.469Z,101338.84
2023-05-09T08:25:37.750Z,101346.59
2023-05-09T08:28:08.201Z,101333.06
2023-05-09T08:30:41.229Z,101350.28
2023-05-09T08:33:11.542Z,101338.16
2023-05-09T08:35:41.841Z,101338.31
2023-05-09T08:38:14.697Z,101340.50
2023-05-09T08:40:44.966Z,101314.06
2023-05-09T08:43:18.840Z,101334.44
2023-05-09T08:45:50.767Z,101312.31
2023-05-09T08:48:22.580Z,101332.81
2023-05-09T08:50:53.730Z,101327.53
2023-05-09T08:53:27.433Z,101337.31
2023-05-09T08:55:57.870Z,101331.81
2023-05-09T08:58:29.506Z,101337.69
2023-05-09T09:01:00.011Z,101332.09
2023-05-09T09:03:30.668Z,101323.75
2023-05-09T09:06:01.859Z,101316.03
2023-05-09T09:08:34.841Z,101322.72
2023-05-09T09:11:08.457Z,101321.44
2023-05-09T09:13:43.941Z,101329.22
2023-05-09T09:16:23.372Z,101333.75
2023-05-09T09:18:58.502Z,101323.09
2023-05-09T09:21:29.093Z,101321.19
2023-05-09T09:24:02.215Z,101324.53
2023-05-09T09:26:32.680Z,101327.94
2023-05-09T09:29:05.534Z,101326.84
2023-05-09T09:31:36.610Z,101324.44
2023-05-09T09:34:06.978Z,101323.31
2023-05-09T09:36:37.274Z,101322.09
2023-05-09T09:39:10.095Z,101315.88
2023-05-09T09:41:45.060Z,101325.25
2023-05-09T09:44:17.069Z,101317.47
2023-05-09T09:46:48.624Z,101314.06
2023-05-09T09:49:22.028Z,101314.56
2023-05-09T09:51:57.625Z,101303.19
2023-05-09T09:54:32.300Z,101308.22
2023-05-09T09:57:02.973Z,101304.19
2023-05-09T09:59:33.184Z,101298.66
2023-05-09T10:02:07.998Z,101293.03
2023-05-09T10:04:41.792Z,101297.63
2023-05-09T10:07:15.054Z,101293.72
2023-05-09T10:09:50.165Z,101307.31
2023-05-09T10:12:23.067Z,101287.53
2023-05-09T10:14:53.573Z,101291.75
2023-05-09T10:17:27.733Z,101283.34
2023-05-09T10:19:58.799Z,101290.13
2023-05-09T10:22:31.457Z,101284.41
2023-05-09T10:25:07.206Z,101287.00
2023-05-09T10:27:39.295Z,101288.03
2023-05-09T10:30:13.033Z,101288.19
2023-05-09T10:32:51.158Z,101275.28
2023-05-09T10:35:23.202Z,101276.59
2023-05-09T10:37:55.549Z,101266.19
2023-05-09T10:40:29.025Z,101264.13
2023-05-09T10:42:59.147Z,101259.19
2023-05-09T10:45:30.100Z,101254.84
2023-05-09T10:48:01.927Z,101258.13
2023-05-09T10:50:37.850Z,101255.88
2023-05-09T10:53:15.230Z,101257.81
2023-05-09T10:55:55.877Z,101257.50
2023-05-09T10:58:29.377Z,101256.53
2023-05-09T11:01:01.437Z,101249.78
2023-05-09T11:03:52.430Z,101254.09
2023-05-09T11:06:37.055Z,101245.56
2023-05-09T11:09:36.175Z,101249.28
2023-05-09T11:12:16.161Z,101248.94
2023-05-09T11:14:47.767Z,101233.38
2023-05-09T11:17:30.808Z,101240.09
2023-05-09T11:20:07.366Z,101240.41
2023-05-09T11:22:43.237Z,101229.19
2023-05-09T11:25:17.252Z,101224.53
2023-05-09T11:27:52.405Z,101226.22
2023-05-09T11:30:23.778Z,101224.13
2023-05-09T11:32:59.161Z,101225.88
2023-05-09T11:35:30.637Z,101225.44
2023-05-09T11:38:04.530Z,101218.03
2023-05-09T11:40:35.887Z,101219.00
2023-05-09T11:43:11.335Z,101218.03
2023-05-09T11:45:43.740Z,101187.38
2023-05-09T11:48:14.054Z,101209.34
2023-05-09T11:50:44.317Z,101208.22
2023-05-09T11:53:15.193Z,101211.25
2023-05-09T11:55:45.074Z,101215.28
2023-05-09T11:58:18.520Z,101205.81
2023-05-09T12:00:49.267Z,101208.66
2023-05-09T12:03:19.659Z,101209.97
2023-05-09T12:05:51.550Z,101199.22
2023-05-09T12:08:21.982Z,101201.00
2023-05-09T12:10:52.428Z,101203.22
2023-05-09T12:13:25.242Z,101201.00
2023-05-09T12:16:03.186Z,101193.63
2023-05-09T12:18:33.823Z,101197.53
2023-05-09T12:21:04.574Z,101190.63
2023-05-09T12:23:38.001Z,101194.31
2023-05-09T12:26:08.930Z,101184.53
2023-05-09T12:28:44.323Z,101185.81
2023-05-09T12:31:16.193Z,101188.38
2023-05-09T12:33:46.461Z,101162.66
2023-05-09T12:36:17.030Z,101179.34
2023-05-09T12:38:56.546Z,101137.78
2023-05-09T12:41:36.986Z,101165.47
2023-05-09T12:44:21.968Z,101163.91
2023-05-09T12:47:02.991Z,101161.50
2023-05-09T12:49:33.915Z,101161.69
2023-05-09T12:52:05.062Z,101155.28
2023-05-09T12:54:36.130Z,101154.31
2023-05-09T12:57:06.663Z,101147.22
2023-05-09T12:59:41.321Z,101145.06
2023-05-09T13:02:11.534Z,101139.50
2023-05-09T13:04:41.835Z,101137.56
2023-05-09T13:07:13.337Z,101136.91
2023-05-09T13:09:58.502Z,101138.50
2023-05-09T13:12:28.888Z,101137.09
2023-05-09T13:15:01.921Z,101133.81
2023-05-09T13:17:34.532Z,101125.81
2023-05-09T13:20:06.896Z,101132.41
2023-05-09T13:22:37.461Z,101113.06
2023-05-09T13:25:08.838Z,101132.09
2023-05-09T13:27:41.620Z,101104.50
2023-05-09T13:30:18.566Z,101111.56
2023-05-09T13:32:49.855Z,101109.41
2023-05-09T13:35:20.586Z,101103.75
2023-05-09T13:37:51.205Z,101121.06
2023-05-09T13:40:21.625Z,101106.31
2023-05-09T13:42:54.909Z,101117.91
2023-05-09T13:45:27.721Z,101106.59
2023-05-09T13:47:58.120Z,101098.78
2023-05-09T13:50:28.680Z,101103.00
2023-05-09T13:52:59.347Z,101099.41
2023-05-09T13:55:33.530Z,101091.13
2023-05-09T13:58:03.659Z,101104.22
2023-05-09T14:00:36.968Z,101097.34
2023-05-09T14:03:09.646Z,101094.28
2023-05-09T14:05:40.041Z,101102.16
2023-05-09T14:08:18.763Z,101087.56
2023-05-09T14:10:49.106Z,101091.25
2023-05-09T14:13:19.516Z,101083.59
2023-05-09T14:15:52.423Z,101087.84
2023-05-09T14:18:25.018Z,101100.09
2023-05-09T14:20:55.182Z,101086.13
2023-05-09T14:23:25.380Z,101096.22
2023-05-09T14:25:55.585Z,101091.25
2023-05-09T14:28:26.189Z,101092.56
2023-05-09T14:30:59.014Z,101086.59
2023-05-09T14:33:29.546Z,101059.84
2023-05-09T14:36:01.485Z,101080.53
2023-05-09T14:38:33.555Z,101073.66
2023-05-09T14:41:03.838Z,101088.06
2023-05-09T14:43:34.015Z,101088.09
2023-05-09T14:46:06.928Z,101088.59
2023-05-09T14:48:37.333Z,101095.69
2023-05-09T14:51:07.863Z,101090.72
2023-05-09T14:53:41.987Z,101078.84
2023-05-09T14:56:13.501Z,101082.91
2023-05-09T14:58:43.846Z,101056.13
2023-05-09T15:01:19.226Z,101082.44
2023-05-09T15:03:50.907Z,101077.13
2023-05-09T15:06:21.146Z,101086.91
2023-05-09T15:08:51.284Z,101092.34
2023-05-09T15:11:22.524Z,101084.81
2023-05-09T15:13:58.599Z,101086.91
2023-05-09T15:16:31.780Z,101087.03
2023-05-09T15:19:03.851Z,101086.84
2023-05-09T15:21:35.959Z,101083.00
2023-05-09T15:24:10.159Z,101081.81
2023-05-09T15:26:40.879Z,101086.91
2023-05-09T15:29:11.236Z,101090.88
2023-05-09T15:31:44.122Z,101085.53
2023-05-09T15:34:15.862Z,101088.22
2023-05-09T15:36:46.253Z,101093.84
2023-05-09T15:39:16.728Z,101091.41
2023-05-09T15:41:47.902Z,101083.84
2023-05-09T15:44:18.151Z,101089.53
2023-05-09T15:46:50.939Z,101093.81
2023-05-09T15:49:21.728Z,101096.16
2023-05-09T15:51:51.911Z,101083.63
2023-05-09T15:54:23.581Z,101087.09
2023-05-09T15:56:54.320Z,101088.31
2023-05-09T15:59:24.601Z,101080.72
2023-05-09T16:01:57.563Z,101069.13
2023-05-09T16:04:27.852Z,101087.50
2023-05-09T16:06:58.554Z,101070.34
2023-05-09T16:09:28.720Z,101080.72
2023-05-09T16:12:01.087Z,101072.78
2023-05-09T16:14:31.567Z,101067.00
2023-05-09T16:17:04.843Z,101076.28
2023-05-09T16:19:38.496Z,101081.06
2023-05-09T16:22:11.051Z,101071.69
2023-05-09T16:24:44.318Z,101074.06
2023-05-09T16:27:14.965Z,101076.09
2023-05-09T16:29:45.511Z,101087.53
2023-05-09T16:32:18.364Z,101080.66
2023-05-09T16:34:51.604Z,101085.19
2023-05-09T16:37:21.925Z,101076.56
2023-05-09T16:39:52.282Z,101083.78
2023-05-09T16:42:22.492Z,101084.09
2023-05-09T16:44:53.024Z,101071.34
2023-05-09T16:47:26.010Z,101071.56
2023-05-09T16:49:58.102Z,101078.88
2023-05-09T16:52:30.824Z,101066.03
2023-05-09T16:55:01.355Z,101070.75
2023-05-09T16:57:34.497Z,101078.31
2023-05-09T17:00:04.639Z,101077.59
2023-05-09T17:02:37.597Z,101069.88
2023-05-09T17:05:08.636Z,101077.28
2023-05-09T17:07:39.004Z,101050.06
2023-05-09T17:10:10.449Z,101070.16
2023-05-09T17:12:41.140Z,101077.09
2023-05-09T17:15:16.253Z,101085.94
2023-05-09T17:17:49.963Z,101072.56
2023-05-09T17:20:20.201Z,101085.94
2023-05-09T17:22:50.436Z,101079.41
2023-05-09T17:25:23.630Z,101086.44
2023-05-09T17:27:56.471Z,101085.34
2023-05-09T17:30:28.215Z,101080.78
2023-05-09T17:33:01.016Z,101085.53
2023-05-09T17:35:31.293Z,101089.28
2023-05-09T17:38:01.524Z,101090.06
2023-05-09T17:40:31.938Z,101079.03
2023-05-09T17:43:04.456Z,101089.34
2023-05-09T17:45:34.684Z,101079.88
2023-05-09T17:48:07.575Z,101093.03
2023-05-09T17:50:37.827Z,101098.16
2023-05-09T17:53:09.018Z,101097.13
2023-05-09T17:55:39.286Z,101096.28
2023-05-09T17:58:12.192Z,101092.56
2023-05-09T18:00:42.317Z,101097.47
2023-05-09T18:03:15.276Z,101102.44
2023-05-09T18:05:45.632Z,101097.06
2023-05-09T18:08:16.087Z,101062.44
2023-05-09T18:10:46.486Z,101094.25
2023-05-09T18:13:19.339Z,101090.59
2023-05-09T18:15:49.505Z,101091.16
2023-05-09T18:18:22.639Z,101095.56
2023-05-09T18:20:53.027Z,101096.19
2023-05-09T18:23:25.226Z,101100.28
2023-05-09T18:25:56.771Z,101105.19
2023-05-09T18:28:29.118Z,101111.22
2023-05-09T18:31:01.541Z,101113.91
2023-05-09T18:33:36.965Z,101125.31
2023-05-09T18:36:11.513Z,101121.28
2023-05-09T18:38:41.970Z,101120.97
2023-05-09T18:41:14.059Z,101113.72
2023-05-09T18:43:48.386Z,101110.81
2023-05-09T18:46:22.045Z,101110.84
2023-05-09T18:48:55.375Z,101119.19
2023-05-09T18:51:25.898Z,101116.81
2023-05-09T18:53:56.998Z,101115.25
2023-05-09T18:56:27.189Z,101113.41
2023-05-09T18:58:57.566Z,101112.63
2023-05-09T19:01:30.613Z,101124.22
2023-05-09T19:04:04.798Z,101119.13
2023-05-09T19:06:35.124Z,101118.56
2023-05-09T19:09:05.890Z,101119.88
2023-05-09T19:11:36.258Z,101111.78
2023-05-09T19:14:09.045Z,101120.16
2023-05-09T19:16:39.322Z,101132.00
2023-05-09T19:19:12.185Z,101067.47
2023-05-09T19:21:42.509Z,101124.72
2023-05-09T19:24:12.962Z,101113.41
2023-05-09T19:26:43.216Z,101116.13
2023-05-09T19:29:13.483Z,101095.19
2023-05-09T19:31:43.851Z,101105.72
2023-05-09T19:34:16.812Z,101107.38
2023-05-09T19:36:47.137Z,101102.81
2023-05-09T19:39:17.389Z,101100.91
2023-05-09T19:41:48.241Z,101106.31
2023-05-09T19:44:18.332Z,101102.34
2023-05-09T19:46:51.123Z,101105.88
2023-05-09T19:49:24.028Z,101102.59
2023-05-09T19:51:54.642Z,101097.75
2023-05-09T19:54:28.731Z,101089.09
2023-05-09T19:57:01.267Z,101064.44
2023-05-09T19:59:32.692Z,101078.97
2023-05-09T20:02:03.029Z,101061.25
2023-05-09T20:04:39.086Z,101084.66
2023-05-09T20:07:09.524Z,101081.44
2023-05-09T20:09:40.039Z,101079.84
2023-05-09T20:12:14.734Z,101066.91
2023-05-09T20:14:45.226Z,101077.47
2023-05-09T20:17:15.498Z,101073.69
2023-05-09T20:19:48.291Z,101066.69
2023-05-09T20:22:20.758Z,101071.25
2023-05-09T20:24:51.377Z,101065.13
2023-05-09T20:27:22.247Z,101068.09
2023-05-09T20:29:52.582Z,101085.38
2023-05-09T20:32:22.719Z,101077.34
2023-05-09T20:34:55.400Z,101071.13
2023-05-09T20:37:27.852Z,101069.25
2023-05-09T20:39:58.375Z,101065.00
2023-05-09T20:42:28.693Z,101062.06
2023-05-09T20:44:58.806Z,101069.03
2023-05-09T20:47:29.354Z,101055.56
2023-05-09T20:50:02.096Z,101057.19
2023-05-09T20:52:34.564Z,101064.75
2023-05-09T20:55:05.612Z,101059.38
2023-05-09T20:57:35.492Z,101052.88
2023-05-09T21:00:07.792Z,101058.28
2023-05-09T21:02:38.068Z,101058.28
2023-05-09T21:05:11.472Z,101056.69
2023-05-09T21:07:43.916Z,101056.44
2023-05-09T21:10:14.198Z,101056.44
2023-05-09T21:12:44.594Z,101053.44
2023-05-09T21:15:14.957Z,101038.66
2023-05-09T21:17:45.081Z,101053.44
2023-05-09T21:20:18.418Z,101031.38
2023-05-09T21:22:48.636Z,101045.09
2023-05-09T21:25:19.391Z,101045.34
2023-05-09T21:27:49.470Z,101046.44
2023-05-09T21:30:19.972Z,101037.59
2023-05-09T21:32:50.083Z,101041.09
2023-05-09T21:35:23.132Z,101037.34
2023-05-09T21:37:53.394Z,101040.28
2023-05-09T21:40:23.458Z,101042.44
2023-05-09T21:42:53.528Z,101035.22
2023-05-09T21:45:23.570Z,101017.44
2023-05-09T21:47:53.765Z,101040.59
2023-05-09T21:50:26.811Z,101034.41
2023-05-09T21:52:57.660Z,101036.53
2023-05-09T21:55:27.970Z,101032.78
2023-05-09T21:58:00.072Z,101030.91
2023-05-09T22:00:30.258Z,101036.81
2023-05-09T22:03:01.307Z,101030.88
2023-05-09T22:05:35.372Z,101027.66
2023-05-09T22:08:05.563Z,101022.56
2023-05-09T22:10:37.901Z,101028.50
2023-05-09T22:13:08.186Z,101033.59
2023-05-09T22:15:38.363Z,101032.28
2023-05-09T22:18:08.970Z,101026.06
2023-05-09T22:20:41.990Z,101029.06
2023-05-09T22:23:12.030Z,101027.16
2023-05-09T22:25:42.068Z,101022.88
2023-05-09T22:28:14.122Z,101022.06
2023-05-09T22:30:45.039Z,101022.31
2023-05-09T22:33:15.223Z,101015.88
2023-05-09T22:35:48.888Z,101020.44
2023-05-09T22:38:19.009Z,101016.13
2023-05-09T22:40:49.176Z,101026.09
2023-05-09T22:43:21.715Z,101018.00
2023-05-09T22:45:52.997Z,101006.72
2023-05-09T22:48:23.743Z,101005.38
2023-05-09T22:50:56.909Z,101014.25
2023-05-09T22:53:28.425Z,100998.66
2023-05-09T22:55:59.637Z,101001.84
2023-05-09T22:58:32.093Z,101006.19
2023-05-09T23:01:02.309Z,100992.75
2023-05-09T23:03:32.491Z,100987.91
2023-05-09T23:06:05.335Z,100986.31
2023-05-09T23:08:36.307Z,100986.84
2023-05-09T23:11:09.361Z,100978.78
2023-05-09T23:13:39.614Z,100984.16
2023-05-09T23:16:10.545Z,100978.78
2023-05-09T23:18:41.019Z,100978.00
2023-05-09T23:21:13.734Z,100966.69
2023-05-09T23:23:43.858Z,100968.56
2023-05-09T23:26:16.101Z,100972.88
2023-05-09T23:28:46.323Z,100976.13
2023-05-09T23:31:16.655Z,100966.69
2023-05-09T23:33:46.952Z,100965.31
2023-05-09T23:36:19.792Z,100959.97
2023-05-09T23:38:50.036Z,100957.53
2023-05-09T23:41:20.220Z,100953.53
2023-05-09T23:43:50.420Z,100944.91
2023-05-09T23:46:20.644Z,100950.84
2023-05-09T23:48:50.819Z,100944.41
2023-05-09T23:51:23.602Z,100944.66
2023-05-09T23:53:53.753Z,100949.78
2023-05-09T23:56:25.481Z,100936.34
2023-05-09T23:58:58.259Z,100940.66
